Time;durP1;ratioP1;P1;durP2;ratioP2;P2;SDS_P1;SDS_P2;PMS_P1;PMS_P2;Temp;Humidity;BMP_temperature;BMP_pressure;BME280_temperature;BME280_humidity;BME280_pressure;Samples;Min_cycle;Max_cycle;Signal;HPM_P1;HPM_P2
2024/04/02 00:01:41;;;;;;;8.30;1.70;;;;;;;18.19;49.12;97136.20;238838;180;153746;-50
2024/04/02 00:06:45;;;;;;;4.60;1.40;;;;;;;18.03;49.33;97161.94;238964;180;138061;-54
2024/04/02 00:11:48;;;;;;;4.40;1.40;;;;;;;17.94;49.31;97181.96;239021;180;138668;-54
2024/04/02 00:16:51;;;;;;;6.00;1.50;;;;;;;17.81;49.40;97204.75;238783;180;153054;-54
2024/04/02 00:21:54;;;;;;;7.40;1.60;;;;;;;17.69;49.81;97200.59;239019;180;137579;-52
2024/04/02 00:26:57;;;;;;;5.50;1.70;;;;;;;17.63;50.47;97189.29;238942;180;138035;-54
2024/04/02 00:32:00;;;;;;;4.50;1.80;;;;;;;17.56;50.84;97194.14;238939;180;152901;-53
2024/04/02 00:37:03;;;;;;;6.00;1.60;;;;;;;17.46;51.38;97203.23;238809;180;139081;-52
2024/04/02 00:42:06;;;;;;;11.10;1.80;;;;;;;17.39;51.62;97203.90;238966;180;138124;-54
2024/04/02 00:47:11;;;;;;;3.50;1.50;;;;;;;17.31;51.72;97196.38;238849;180;153773;-53
2024/04/02 00:52:14;;;;;;;3.60;1.20;;;;;;;17.16;52.11;97190.45;238958;180;138769;-51
2024/04/02 00:57:17;;;;;;;2.80;1.20;;;;;;;17.04;52.57;97199.95;238947;180;137002;-54
2024/04/02 01:02:20;;;;;;;7.70;1.50;;;;;;;16.89;53.00;97194.53;238945;180;152917;-52
2024/04/02 01:07:23;;;;;;;4.70;1.40;;;;;;;16.75;53.58;97186.15;239100;180;142658;-54
2024/04/02 01:12:26;;;;;;;3.70;1.30;;;;;;;16.61;53.91;97186.02;238912;180;137350;-52
2024/04/02 01:17:29;;;;;;;3.30;1.40;;;;;;;16.46;54.52;97190.45;238921;180;152930;-54
2024/04/02 01:22:32;;;;;;;3.20;1.40;;;;;;;16.28;55.02;97181.90;238997;180;139321;-54
2024/04/02 01:27:35;;;;;;;3.20;1.70;;;;;;;16.22;55.63;97185.91;239135;179;139008;-52
2024/04/02 01:32:38;;;;;;;3.70;1.40;;;;;;;16.11;56.02;97187.70;239040;179;153295;-54
2024/04/02 01:37:41;;;;;;;3.50;1.70;;;;;;;16.06;56.38;97192.86;238969;180;137069;-52
2024/04/02 01:42:44;;;;;;;3.20;1.40;;;;;;;16.03;56.50;97196.81;238942;178;138029;-52
2024/04/02 01:47:47;;;;;;;6.30;1.60;;;;;;;15.99;56.91;97197.83;239029;180;153491;-52
2024/04/02 01:52:50;;;;;;;8.70;2.00;;;;;;;15.93;57.13;97193.98;239009;180;141252;-54
2024/04/02 01:57:53;;;;;;;4.40;2.10;;;;;;;15.86;57.35;97207.36;239064;180;138022;-52
2024/04/02 02:02:56;;;;;;;2.70;2.10;;;;;;;15.81;57.77;97214.66;238983;180;153032;-49
2024/04/02 02:07:59;;;;;;;4.80;2.50;;;;;;;15.82;57.87;97221.16;238920;180;137293;-53
2024/04/02 02:13:04;;;;;;;5.00;2.50;;;;;;;15.78;58.08;97224.06;239027;180;137762;-53
2024/04/02 02:18:07;;;;;;;4.20;3.40;;;;;;;15.77;58.24;97234.45;238923;179;153008;-51
2024/04/02 02:23:10;;;;;;;3.80;3.40;;;;;;;15.73;58.47;97236.91;238807;180;137039;-54
2024/04/02 02:28:13;;;;;;;3.60;3.30;;;;;;;15.68;58.73;97234.52;239114;180;138080;-54
2024/04/02 02:33:16;;;;;;;4.80;3.60;;;;;;;15.65;59.42;97238.14;238776;180;152628;-52
2024/04/02 02:38:19;;;;;;;6.00;3.50;;;;;;;15.59;60.81;97253.27;238946;180;138380;-53
2024/04/02 02:43:22;;;;;;;3.40;2.00;;;;;;;15.47;62.13;97270.63;239059;180;137132;-53
2024/04/02 02:48:25;;;;;;;2.90;1.50;;;;;;;15.25;63.65;97278.98;238973;180;153037;-53
2024/04/02 02:53:28;;;;;;;3.40;1.50;;;;;;;15.07;64.71;97281.15;238940;180;137973;-53
2024/04/02 02:58:31;;;;;;;1.90;0.90;;;;;;;14.92;65.72;97288.95;238917;180;139582;-51
2024/04/02 03:03:34;;;;;;;1.80;1.00;;;;;;;14.82;66.19;97284.01;238958;180;153460;-53
2024/04/02 03:08:37;;;;;;;1.90;0.80;;;;;;;14.63;66.65;97254.09;238942;180;137933;-51
2024/04/02 03:13:40;;;;;;;3.20;0.90;;;;;;;14.48;67.57;97240.91;238964;180;137118;-53
2024/04/02 03:18:43;;;;;;;1.60;0.90;;;;;;;14.28;67.92;97230.98;238987;180;154619;-52
2024/04/02 03:23:46;;;;;;;3.30;1.00;;;;;;;14.16;68.16;97231.63;238951;180;137640;-52
2024/04/02 03:28:49;;;;;;;2.20;0.90;;;;;;;14.07;68.45;97227.33;239006;180;142405;-52
2024/04/02 03:33:53;;;;;;;3.20;0.70;;;;;;;14.06;68.71;97229.41;239001;180;153763;-53
2024/04/02 03:38:56;;;;;;;2.00;0.70;;;;;;;14.06;68.95;97241.88;239095;180;137438;-51
2024/04/02 03:43:59;;;;;;;1.40;0.60;;;;;;;13.92;68.44;97252.81;239023;180;138267;-53
2024/04/02 03:49:02;;;;;;;0.80;0.40;;;;;;;13.75;67.76;97252.96;238922;177;152921;-53
2024/04/02 03:54:05;;;;;;;0.70;0.40;;;;;;;13.73;67.48;97259.58;238624;180;137858;-49
2024/04/02 03:59:08;;;;;;;2.30;0.40;;;;;;;13.74;67.15;97265.52;238901;180;137821;-53
2024/04/02 04:04:12;;;;;;;2.30;0.30;;;;;;;13.68;67.07;97266.37;238828;180;154016;-53
2024/04/02 04:09:15;;;;;;;0.20;0.20;;;;;;;13.62;67.12;97269.80;238895;180;138265;-55
2024/04/02 04:14:18;;;;;;;0.30;0.20;;;;;;;13.55;67.10;97267.69;239053;178;137811;-53
2024/04/02 04:19:21;;;;;;;0.50;0.20;;;;;;;13.49;67.23;97268.19;239058;180;152382;-52
2024/04/02 04:24:24;;;;;;;1.10;0.40;;;;;;;13.39;67.56;97276.61;239031;180;138249;-52
2024/04/02 04:29:27;;;;;;;0.60;0.40;;;;;;;13.41;67.77;97286.90;238947;180;137427;-52
2024/04/02 04:34:30;;;;;;;54.50;44.40;;;;;;;13.38;68.31;97286.72;239012;180;153606;-53
2024/04/02 04:39:33;;;;;;;3.10;2.00;;;;;;;13.47;68.65;97291.50;238956;180;138397;-53
2024/04/02 04:44:36;;;;;;;0.90;0.70;;;;;;;13.63;68.45;97300.42;238958;180;137100;-54
2024/04/02 04:49:39;;;;;;;1.80;0.70;;;;;;;13.61;68.25;97304.67;238863;180;153192;-53
2024/04/02 04:54:42;;;;;;;0.90;0.60;;;;;;;13.54;68.38;97309.52;239054;180;137130;-54
2024/04/02 04:59:45;;;;;;;20.50;17.30;;;;;;;13.45;68.03;97317.70;238911;180;138313;-52
2024/04/02 05:04:48;;;;;;;5.00;1.50;;;;;;;13.34;67.80;97326.89;238877;180;153909;-53
2024/04/02 05:09:51;;;;;;;0.60;0.40;;;;;;;13.21;67.67;97329.34;238867;180;142607;-53
2024/04/02 05:14:56;;;;;;;2.50;0.60;;;;;;;13.08;67.65;97331.58;238904;172;137947;-52
2024/04/02 05:19:59;;;;;;;4.50;3.20;;;;;;;13.02;67.68;97337.54;238943;180;152284;-54
2024/04/02 05:25:03;;;;;;;0.80;0.50;;;;;;;12.92;67.93;97330.42;238872;178;138168;-51
2024/04/02 05:30:06;;;;;;;1.70;0.60;;;;;;;12.94;68.03;97333.13;238749;180;138119;-53
2024/04/02 05:35:09;;;;;;;1.40;0.80;;;;;;;13.01;67.95;97330.81;238882;180;153131;-52
2024/04/02 05:40:12;;;;;;;0.80;0.50;;;;;;;13.00;67.75;97327.55;238994;180;138203;-52
2024/04/02 05:45:16;;;;;;;4.50;2.70;;;;;;;12.98;67.62;97325.44;239005;180;138649;-54
2024/04/02 05:50:19;;;;;;;1.90;0.70;;;;;;;12.94;67.66;97334.92;238905;180;153189;-54
2024/04/02 05:55:25;;;;;;;1.60;0.70;;;;;;;12.82;67.98;97334.16;238730;180;137807;-52
2024/04/02 06:00:30;;;;;;;1.70;0.70;;;;;;;12.89;68.05;97343.08;239094;178;138430;-52
2024/04/02 06:05:33;;;;;;;6.30;3.80;;;;;;;12.92;68.20;97350.98;238937;180;153654;-54
2024/04/02 06:10:36;;;;;;;1.60;0.70;;;;;;;12.96;68.17;97362.84;238844;180;139162;-54
2024/04/02 06:15:39;;;;;;;2.20;0.90;;;;;;;12.95;68.20;97377.13;238945;180;138221;-51
2024/04/02 06:20:42;;;;;;;2.60;1.00;;;;;;;12.96;68.22;97384.83;238658;180;153506;-54
2024/04/02 06:25:48;;;;;;;2.10;1.00;;;;;;;13.00;68.13;97391.95;238855;180;138194;-56
2024/04/02 06:30:51;;;;;;;1.90;1.00;;;;;;;13.01;68.29;97399.15;238855;180;137025;-50
2024/04/02 06:35:54;;;;;;;10.00;6.80;;;;;;;12.97;68.40;97401.56;238962;180;154318;-54
2024/04/02 06:40:57;;;;;;;2.30;1.10;;;;;;;12.91;68.46;97408.67;238874;180;138246;-55
2024/04/02 06:46:00;;;;;;;2.40;1.10;;;;;;;12.78;68.94;97409.83;238907;180;138189;-54
2024/04/02 06:51:06;;;;;;;3.00;1.30;;;;;;;12.68;69.51;97414.00;238939;180;153046;-54
2024/04/02 06:56:09;;;;;;;2.00;1.10;;;;;;;12.62;69.50;97413.38;238865;178;137139;-53
2024/04/02 07:01:12;;;;;;;2.60;1.10;;;;;;;12.61;69.54;97412.52;238954;180;138503;-55
2024/04/02 07:06:15;;;;;;;1.20;0.80;;;;;;;12.59;69.42;97421.23;239043;180;153413;-54
2024/04/02 07:11:18;;;;;;;2.70;0.90;;;;;;;12.55;68.97;97424.64;238971;177;140597;-53
2024/04/02 07:16:21;;;;;;;1.80;0.90;;;;;;;12.45;68.86;97424.04;238881;173;138061;-52
2024/04/02 07:21:24;;;;;;;1.00;0.90;;;;;;;12.39;68.75;97437.58;238892;180;153446;-53
2024/04/02 07:26:27;;;;;;;2.10;1.10;;;;;;;12.32;68.53;97460.84;238865;180;137880;-53
2024/04/02 07:31:30;;;;;;;2.50;0.80;;;;;;;12.28;68.61;97480.05;239012;180;137791;-51
2024/04/02 07:36:33;;;;;;;2.60;1.20;;;;;;;12.20;69.25;97478.70;238930;180;153697;-54
2024/04/02 07:41:36;;;;;;;65.60;55.50;;;;;;;12.15;70.03;97485.58;238833;180;137756;-53
2024/04/02 07:46:39;;;;;;;2.20;2.00;;;;;;;12.21;70.26;97495.80;239006;180;139242;-53
2024/04/02 07:51:42;;;;;;;3.90;1.50;;;;;;;12.31;70.26;97506.44;238911;180;154083;-54
2024/04/02 07:56:45;;;;;;;1.70;1.40;;;;;;;12.39;69.75;97519.73;238901;180;138005;-50
2024/04/02 08:01:48;;;;;;;3.10;1.10;;;;;;;12.36;69.49;97525.54;238951;180;138053;-55
2024/04/02 08:06:52;;;;;;;2.60;1.40;;;;;;;12.28;69.15;97532.65;238985;180;154543;-56
2024/04/02 08:11:55;;;;;;;4.30;1.00;;;;;;;12.16;68.76;97549.67;238914;180;139439;-54
2024/04/02 08:16:59;;;;;;;1.70;1.00;;;;;;;12.02;68.72;97567.24;238980;180;137959;-54
2024/04/02 08:22:02;;;;;;;2.80;0.90;;;;;;;11.91;69.13;97595.66;239074;180;154060;-52
2024/04/02 08:27:05;;;;;;;1.80;1.20;;;;;;;11.80;67.42;97607.12;238903;180;138723;-54
2024/04/02 08:32:08;;;;;;;256.80;190.40;;;;;;;11.73;66.29;97607.70;238826;174;138155;-51
2024/04/02 08:37:12;;;;;;;6.00;2.20;;;;;;;11.64;65.59;97611.14;239034;180;153796;-53
2024/04/02 08:42:16;;;;;;;3.60;1.40;;;;;;;11.46;65.40;97624.34;238987;176;137184;-54
2024/04/02 08:47:27;;;;;;;4.00;1.60;;;;;;;11.34;65.90;97621.64;239060;180;137499;-53
2024/04/02 08:52:30;;;;;;;6.50;1.70;;;;;;;11.30;66.19;97621.79;239049;180;154295;-53
2024/04/02 08:57:33;;;;;;;2.40;1.40;;;;;;;11.26;66.74;97620.96;238972;180;138526;-52
2024/04/02 09:02:36;;;;;;;5.50;1.60;;;;;;;11.24;67.13;97629.66;238929;180;139330;-55
2024/04/02 09:07:39;;;;;;;3.40;1.50;;;;;;;11.18;67.47;97630.71;238842;180;154457;-52
2024/04/02 09:12:42;;;;;;;2.60;1.60;;;;;;;11.25;67.90;97638.79;238868;180;138611;-53
2024/04/02 09:17:45;;;;;;;2.90;2.00;;;;;;;11.30;68.32;97650.80;238924;180;138938;-54
2024/04/02 09:22:49;;;;;;;64.10;45.30;;;;;;;11.34;68.80;97664.11;238989;180;154267;-54
2024/04/02 09:27:52;;;;;;;6.70;4.00;;;;;;;11.32;69.08;97668.73;238996;180;137981;-55
2024/04/02 09:33:01;;;;;;;7.00;3.00;;;;;;;11.34;69.42;97681.02;238736;180;141048;-53
2024/04/02 09:38:07;;;;;;;4.20;2.60;;;;;;;11.36;69.45;97693.61;238797;180;153189;-53
2024/04/02 09:43:10;;;;;;;;;;;;;;;11.40;69.89;97704.23;238915;180;137066;-53
2024/04/02 09:48:14;;;;;;;5.30;4.10;;;;;;;11.34;69.62;97707.40;239068;180;137838;-53
2024/04/02 09:53:19;;;;;;;4.60;3.80;;;;;;;11.38;69.99;97707.48;238939;179;154427;-54
2024/04/02 09:58:22;;;;;;;6.30;4.00;;;;;;;11.46;70.10;97710.33;239005;180;137849;-53
2024/04/02 10:03:28;;;;;;;5.70;3.60;;;;;;;11.58;69.82;97714.60;238915;180;138461;-51
2024/04/02 10:08:32;;;;;;;7.10;3.70;;;;;;;11.67;69.07;97721.39;238748;180;153747;-52
2024/04/02 10:13:37;;;;;;;6.60;3.00;;;;;;;11.68;69.32;97737.67;238892;180;138193;-53
2024/04/02 10:18:45;;;;;;;4.30;2.50;;;;;;;11.69;69.59;97741.38;238782;180;137937;-55
2024/04/02 10:23:52;;;;;;;4.80;2.70;;;;;;;11.67;69.89;97751.83;238900;180;153725;-51
2024/04/02 10:28:55;;;;;;;3.70;2.50;;;;;;;11.65;69.99;97756.97;238828;180;138075;-53
2024/04/02 10:33:58;;;;;;;4.20;2.60;;;;;;;11.69;70.23;97759.09;239006;180;137375;-52
2024/04/02 10:39:03;;;;;;;6.00;4.10;;;;;;;11.78;70.32;97761.86;238859;180;154602;-56
2024/04/02 10:44:06;;;;;;;4.40;3.10;;;;;;;11.88;70.22;97766.57;238937;180;139387;-54
2024/04/02 10:49:09;;;;;;;3.90;3.10;;;;;;;11.97;70.09;97767.73;238802;180;138208;-56
2024/04/02 10:54:12;;;;;;;5.30;3.60;;;;;;;11.94;70.12;97776.17;238877;180;155165;-54
2024/04/02 10:59:15;;;;;;;5.60;3.40;;;;;;;11.88;70.52;97776.45;238943;180;141654;-56
2024/04/02 11:04:18;;;;;;;4.30;3.90;;;;;;;11.79;70.80;97777.27;238898;176;138223;-54
2024/04/02 11:09:22;;;;;;;60.10;52.00;;;;;;;11.75;71.39;97777.73;238835;180;156112;-57
2024/04/02 11:14:27;;;;;;;20.30;14.10;;;;;;;11.81;71.88;97781.86;238719;178;137679;-54
2024/04/02 11:19:30;;;;;;;7.30;4.70;;;;;;;11.91;71.94;97785.66;238935;180;138205;-55
2024/04/02 11:29:54;;;;;;;6.30;4.20;;;;;;;12.04;71.82;97798.16;238952;180;139609;-54
2024/04/02 11:35:02;;;;;;;4.90;3.80;;;;;;;12.04;71.81;97797.27;238908;180;137950;-55
2024/04/02 11:40:07;;;;;;;6.30;3.60;;;;;;;11.97;71.78;97800.56;239009;180;153602;-55
2024/04/02 11:45:11;;;;;;;6.20;3.60;;;;;;;11.92;71.62;97804.77;238902;180;137053;-53
2024/04/02 11:50:16;;;;;;;4.40;3.20;;;;;;;11.97;71.57;97796.67;239075;180;140575;-52
2024/04/02 11:55:19;;;;;;;3.20;2.50;;;;;;;11.97;71.69;97802.48;238916;180;153832;-55
2024/04/02 12:00:23;;;;;;;3.70;2.10;;;;;;;11.93;71.86;97811.73;239056;180;141870;-54
2024/04/02 12:05:26;;;;;;;3.70;2.60;;;;;;;11.92;71.87;97815.45;238849;180;137428;-55
2024/04/02 12:10:29;;;;;;;4.80;2.90;;;;;;;11.93;72.09;97820.11;238869;173;153400;-54
2024/04/02 12:15:33;;;;;;;3.50;2.80;;;;;;;11.97;72.04;97809.28;238978;180;137921;-55
2024/04/02 12:20:36;;;;;;;5.10;2.90;;;;;;;11.98;72.07;97799.27;238874;178;138660;-55
2024/04/02 12:25:39;;;;;;;3.30;3.00;;;;;;;11.92;72.60;97826.77;238887;180;154285;-56
2024/04/02 12:30:42;;;;;;;39.50;35.30;;;;;;;11.89;73.09;97842.52;238808;180;137939;-53
2024/04/02 12:35:54;;;;;;;6.40;3.30;;;;;;;12.05;73.35;97841.65;238867;180;138787;-55
2024/04/02 12:41:01;;;;;;;5.00;3.30;;;;;;;12.28;72.96;97839.83;238959;180;152862;-55
2024/04/02 12:46:04;;;;;;;5.80;3.40;;;;;;;12.46;71.93;97843.50;239023;180;138386;-55
2024/04/02 12:51:07;;;;;;;11.00;6.50;;;;;;;12.60;71.92;97847.66;239005;180;138207;-55
2024/04/02 12:56:10;;;;;;;5.70;3.40;;;;;;;12.71;71.46;97847.86;238962;180;153943;-53
2024/04/02 13:01:13;;;;;;;5.50;3.20;;;;;;;12.81;70.71;97845.38;239006;177;137108;-53
2024/04/02 13:06:17;;;;;;;4.60;2.90;;;;;;;12.87;70.24;97849.67;239084;176;137386;-55
2024/04/02 13:11:20;;;;;;;3.50;2.30;;;;;;;12.84;69.70;97844.25;239118;180;153501;-54
2024/04/02 13:16:30;;;;;;;64.80;57.90;;;;;;;12.94;69.44;97844.58;238997;180;137814;-54
2024/04/02 13:21:34;;;;;;;4.60;2.90;;;;;;;13.05;69.25;97848.35;238836;180;138073;-54
2024/04/02 13:26:37;;;;;;;4.60;2.90;;;;;;;13.25;69.17;97847.66;238909;180;152925;-54
2024/04/02 13:31:41;;;;;;;6.80;3.10;;;;;;;13.36;68.49;97844.98;239106;178;139619;-53
2024/04/02 13:36:45;;;;;;;4.40;3.30;;;;;;;13.39;67.79;97847.08;238987;178;142843;-53
2024/04/02 13:41:48;;;;;;;6.40;3.30;;;;;;;13.38;67.86;97847.14;239069;180;154069;-54
2024/04/02 13:46:51;;;;;;;5.60;3.40;;;;;;;13.38;67.68;97846.09;238894;180;141838;-54
2024/04/02 13:51:54;;;;;;;5.10;3.20;;;;;;;13.41;67.71;97852.02;238976;180;137734;-53
2024/04/02 13:56:59;;;;;;;5.10;3.30;;;;;;;13.50;67.83;97850.16;239053;177;153661;-53
2024/04/02 14:02:02;;;;;;;4.70;3.20;;;;;;;13.76;67.30;97843.77;238908;180;140520;-54
2024/04/02 14:07:05;;;;;;;5.00;3.40;;;;;;;13.88;66.09;97836.95;238935;180;137357;-53
2024/04/02 14:12:08;;;;;;;5.90;3.40;;;;;;;13.84;65.51;97842.52;239010;180;152984;-54
2024/04/02 14:17:11;;;;;;;5.90;3.30;;;;;;;13.77;65.74;97859.59;238958;179;137252;-53
2024/04/02 14:22:14;;;;;;;6.20;2.90;;;;;;;13.64;66.44;97879.82;238942;180;138042;-52
2024/04/02 14:27:17;;;;;;;2.10;1.30;;;;;;;13.30;65.48;97905.27;239028;180;153214;-52
2024/04/02 14:32:20;;;;;;;1.60;0.80;;;;;;;12.84;64.60;97887.48;239053;179;137874;-54
2024/04/02 14:37:23;;;;;;;3.10;0.80;;;;;;;12.59;64.39;97896.31;239056;180;137389;-51
2024/04/02 14:42:26;;;;;;;3.50;1.30;;;;;;;12.51;65.17;97898.92;239064;180;153656;-52
2024/04/02 14:47:29;;;;;;;2.20;1.10;;;;;;;12.55;66.12;97898.98;238941;177;138022;-54
2024/04/02 14:52:32;;;;;;;1.50;1.20;;;;;;;12.64;66.34;97890.91;239060;180;137484;-53
2024/04/02 14:57:36;;;;;;;2.40;1.40;;;;;;;12.78;66.21;97893.52;239113;180;153182;-54
2024/04/02 15:02:42;;;;;;;3.30;1.30;;;;;;;12.91;66.17;97894.11;238927;176;137900;-54
2024/04/02 15:07:45;;;;;;;9.50;5.80;;;;;;;13.00;66.08;97888.20;238917;180;141984;-51
2024/04/02 15:12:49;;;;;;;5.20;1.80;;;;;;;13.10;65.57;97880.87;238920;180;152855;-54
2024/04/02 15:17:52;;;;;;;3.10;1.80;;;;;;;13.14;65.68;97882.31;238959;177;137331;-55
2024/04/02 15:22:57;;;;;;;2.10;1.30;;;;;;;13.17;64.80;97876.66;238581;180;138643;-53
2024/04/02 15:28:03;;;;;;;3.90;1.30;;;;;;;13.14;64.26;97889.39;238946;180;154027;-57
2024/04/02 15:33:07;;;;;;;1.70;1.10;;;;;;;13.15;63.51;97901.02;239001;176;137205;-54
2024/04/02 15:38:10;;;;;;;2.60;1.30;;;;;;;13.10;62.33;97884.58;238896;180;139372;-53
2024/04/02 15:43:13;;;;;;;3.90;1.20;;;;;;;13.04;61.64;97889.75;238851;180;153185;-55
2024/04/02 15:48:16;;;;;;;3.30;1.00;;;;;;;13.04;61.18;97890.52;238767;180;137363;-53
2024/04/02 15:53:19;;;;;;;6.00;4.90;;;;;;;12.99;60.71;97888.77;238977;180;137688;-54
2024/04/02 15:58:24;;;;;;;2.90;1.10;;;;;;;13.00;60.45;97889.58;238847;180;154551;-55
2024/04/02 16:03:27;;;;;;;2.10;0.90;;;;;;;13.00;60.60;97885.53;238826;180;137093;-54
2024/04/02 16:08:32;;;;;;;3.10;1.00;;;;;;;13.00;60.06;97896.19;239029;180;137986;-53
2024/04/02 16:13:35;;;;;;;22.90;12.50;;;;;;;13.09;60.00;97899.98;239011;177;152978;-53
2024/04/02 16:18:41;;;;;;;2.20;1.00;;;;;;;13.20;59.63;97913.59;238920;180;138802;-54
2024/04/02 16:23:44;;;;;;;3.50;1.10;;;;;;;13.18;59.52;97918.59;238743;181;138153;-55
2024/04/02 16:28:47;;;;;;;3.40;1.10;;;;;;;13.09;59.91;97919.39;238840;180;154695;-55
2024/04/02 16:33:51;;;;;;;2.60;1.10;;;;;;;13.04;60.28;97930.38;238942;180;138970;-52
2024/04/02 16:38:54;;;;;;;26.90;22.80;;;;;;;12.99;60.39;97932.56;239006;180;139256;-53
2024/04/02 16:43:59;;;;;;;6.00;3.60;;;;;;;12.96;60.60;97936.41;238846;180;152878;-54
2024/04/02 16:49:02;;;;;;;3.30;1.50;;;;;;;12.90;60.68;97941.27;238781;180;137951;-55
2024/04/02 16:54:08;;;;;;;2.70;1.40;;;;;;;12.80;60.69;97950.09;238842;180;138435;-55
2024/04/02 16:59:12;;;;;;;5.70;1.80;;;;;;;12.73;60.90;97956.64;238875;180;152907;-52
2024/04/02 17:04:17;;;;;;;6.40;1.80;;;;;;;12.62;61.21;97957.77;238961;180;137387;-53
2024/04/02 17:09:21;;;;;;;24.30;16.20;;;;;;;12.51;61.47;97958.74;238962;180;137897;-54
2024/04/02 17:14:23;;;;;;;8.10;2.80;;;;;;;12.49;62.10;97958.41;238833;180;152982;-54
2024/04/02 17:19:26;;;;;;;25.60;18.50;;;;;;;12.40;61.86;97963.64;238805;180;138627;-52
2024/04/02 17:24:29;;;;;;;6.10;2.60;;;;;;;12.29;62.25;97961.56;239023;180;138579;-53
2024/04/02 17:29:32;;;;;;;5.40;2.20;;;;;;;12.19;62.41;97968.84;238956;180;153847;-54
2024/04/02 17:34:37;;;;;;;19.00;14.30;;;;;;;12.13;63.07;97966.16;238999;180;137975;-54
2024/04/02 17:39:40;;;;;;;10.40;4.30;;;;;;;12.26;63.24;97967.18;239040;177;138140;-56
2024/04/02 17:44:43;;;;;;;5.80;2.20;;;;;;;12.32;63.48;97977.83;238971;180;153650;-53
2024/04/02 17:49:46;;;;;;;10.90;2.60;;;;;;;12.26;62.98;97978.36;238884;180;138764;-53
2024/04/02 17:54:52;;;;;;;7.80;2.30;;;;;;;12.17;63.21;97976.66;239078;180;137344;-50
2024/04/02 17:59:55;;;;;;;8.80;2.60;;;;;;;12.07;63.47;97978.49;238861;180;154420;-54
2024/04/02 18:05:02;;;;;;;4.30;2.60;;;;;;;11.98;63.76;97991.92;238878;180;138089;-55
2024/04/02 18:10:06;;;;;;;8.00;2.30;;;;;;;11.98;64.07;97998.73;238793;180;137691;-53
2024/04/02 18:15:10;;;;;;;6.30;2.60;;;;;;;12.02;64.15;98002.25;238794;180;153809;-54
2024/04/02 18:20:13;;;;;;;6.80;2.60;;;;;;;12.02;64.24;98003.31;238809;180;137171;-54
2024/04/02 18:25:16;;;;;;;10.40;4.20;;;;;;;12.01;64.79;98009.29;239026;180;138664;-54
2024/04/02 18:30:19;;;;;;;292.30;200.70;;;;;;;12.02;64.93;98017.19;238888;178;153073;-52
2024/04/02 18:35:22;;;;;;;26.40;18.50;;;;;;;12.02;65.36;98010.77;238881;180;138142;-52
2024/04/02 18:40:25;;;;;;;17.10;8.80;;;;;;;12.04;65.17;98011.10;239028;180;137265;-52
2024/04/02 18:45:37;;;;;;;7.70;4.90;;;;;;;12.11;65.25;98011.50;238902;180;153692;-55
2024/04/02 18:50:49;;;;;;;8.70;3.70;;;;;;;12.01;65.07;98008.39;238950;180;137798;-52
2024/04/02 18:56:03;;;;;;;13.10;3.90;;;;;;;11.94;65.21;98002.98;238943;180;137186;-55
2024/04/02 19:01:06;;;;;;;26.30;20.90;;;;;;;11.94;66.13;98002.39;238897;180;153459;-51
2024/04/02 19:06:10;;;;;;;7.50;4.20;;;;;;;12.02;65.63;97999.02;238795;180;137744;-52
2024/04/02 19:11:14;;;;;;;7.10;3.60;;;;;;;11.92;65.45;97993.20;238951;180;137102;-54
2024/04/02 19:16:17;;;;;;;199.10;165.10;;;;;;;11.85;65.87;97991.60;238841;180;156133;-54
2024/04/02 19:21:22;;;;;;;12.00;5.20;;;;;;;11.87;66.36;98001.55;238976;180;137445;-55
2024/04/02 19:26:25;;;;;;;10.60;4.10;;;;;;;11.95;66.10;98007.50;238875;180;137715;-54
2024/04/02 19:31:28;;;;;;;7.50;4.30;;;;;;;12.04;65.90;98013.09;238826;180;153262;-54
2024/04/02 19:36:31;;;;;;;15.30;7.00;;;;;;;12.15;65.55;98022.88;238949;180;136939;-53
2024/04/02 19:41:35;;;;;;;21.10;15.20;;;;;;;12.24;65.51;98050.35;238791;180;136882;-54
2024/04/02 19:46:39;;;;;;;10.20;6.00;;;;;;;12.28;65.16;98062.34;238918;180;153563;-52
2024/04/02 19:51:42;;;;;;;11.40;6.10;;;;;;;12.21;64.88;98068.89;238968;180;137973;-57
2024/04/02 19:56:46;;;;;;;8.50;5.30;;;;;;;12.07;64.99;98055.68;238860;180;137677;-56
2024/04/02 20:01:49;;;;;;;8.70;4.30;;;;;;;12.02;65.41;98047.02;238912;180;153141;-56
2024/04/02 20:06:53;;;;;;;8.00;4.40;;;;;;;11.97;65.40;98041.09;238924;180;138021;-57
2024/04/02 20:11:56;;;;;;;176.90;118.80;;;;;;;11.97;65.46;98048.21;238880;180;138673;-57
2024/04/02 20:16:59;;;;;;;11.50;7.30;;;;;;;12.00;65.72;98053.98;238938;179;152979;-55
2024/04/02 20:22:03;;;;;;;7.00;3.30;;;;;;;11.94;65.59;98058.19;238784;180;137410;-56
2024/04/02 20:27:06;;;;;;;5.80;2.80;;;;;;;11.93;65.30;98046.90;238754;180;138578;-56
2024/04/02 20:32:09;;;;;;;3.90;2.20;;;;;;;12.02;64.80;98042.42;238934;180;153181;-56
2024/04/02 20:37:12;;;;;;;4.20;2.30;;;;;;;12.16;64.31;98039.10;239045;180;137871;-56
2024/04/02 20:42:15;;;;;;;4.10;2.50;;;;;;;12.27;63.72;98042.79;238991;180;137189;-55
2024/04/02 20:47:19;;;;;;;7.20;2.20;;;;;;;12.28;63.21;98051.79;238943;180;152832;-56
2024/04/02 20:52:22;;;;;;;5.60;2.60;;;;;;;12.27;63.13;98054.56;238851;180;138866;-56
2024/04/02 20:57:25;;;;;;;4.60;2.70;;;;;;;12.26;62.89;98059.05;238842;180;137357;-57
2024/04/02 21:02:28;;;;;;;5.70;2.90;;;;;;;12.26;62.78;98059.44;238885;180;153913;-57
2024/04/02 21:07:31;;;;;;;7.50;2.80;;;;;;;12.24;62.55;98060.30;238996;180;137269;-57
2024/04/02 21:12:34;;;;;;;6.70;2.70;;;;;;;12.20;62.15;98062.25;239011;180;136698;-57
2024/04/02 21:17:38;;;;;;;7.20;2.70;;;;;;;12.16;61.64;98058.36;238892;180;153224;-57
2024/04/02 21:22:41;;;;;;;5.40;2.40;;;;;;;12.14;61.26;98063.84;238951;180;137325;-57
2024/04/02 21:27:45;;;;;;;4.70;2.80;;;;;;;12.07;60.97;98068.47;239010;180;137837;-55
2024/04/02 21:32:48;;;;;;;8.00;2.70;;;;;;;12.03;60.85;98070.98;238993;180;153127;-57
2024/04/02 21:37:51;;;;;;;5.40;2.50;;;;;;;11.98;60.54;98074.29;238634;180;138800;-56
2024/04/02 21:42:55;;;;;;;7.40;2.30;;;;;;;11.91;60.62;98078.17;239109;180;137830;-56
2024/04/02 21:48:02;;;;;;;4.70;2.40;;;;;;;11.88;60.52;98076.66;238962;180;152851;-55
2024/04/02 21:53:05;;;;;;;4.70;2.30;;;;;;;11.84;60.58;98073.27;238905;180;138238;-56
2024/04/02 21:58:08;;;;;;;5.60;2.30;;;;;;;11.79;60.67;98074.88;238985;176;137554;-53
2024/04/02 22:03:12;;;;;;;4.00;2.30;;;;;;;11.80;60.75;98079.03;238881;180;153919;-57
2024/04/02 22:08:16;;;;;;;5.30;2.40;;;;;;;11.80;60.89;98078.73;238852;180;138176;-56
2024/04/02 22:13:19;;;;;;;4.90;2.50;;;;;;;11.76;61.02;98077.61;238905;180;137403;-56
2024/04/02 22:18:23;;;;;;;5.20;2.20;;;;;;;11.73;61.07;98080.21;238924;180;153094;-56
2024/04/02 22:23:26;;;;;;;4.60;2.00;;;;;;;11.70;61.21;98081.14;238918;180;138777;-56
2024/04/02 22:28:29;;;;;;;3.80;2.10;;;;;;;11.62;61.24;98089.60;239027;176;138002;-53
2024/04/02 22:33:32;;;;;;;3.80;1.90;;;;;;;11.56;61.36;98093.13;239034;177;153202;-56
2024/04/02 22:38:35;;;;;;;2.80;1.80;;;;;;;11.55;61.47;98093.02;238977;180;138005;-56
2024/04/02 22:43:38;;;;;;;4.60;1.80;;;;;;;11.54;61.54;98095.40;238988;180;139212;-55
2024/04/02 22:48:41;;;;;;;4.10;2.00;;;;;;;11.49;61.55;98097.42;238959;180;153201;-56
2024/04/02 22:53:44;;;;;;;2.90;1.70;;;;;;;11.46;61.72;98102.10;238764;181;137187;-56
2024/04/02 22:58:47;;;;;;;3.60;1.80;;;;;;;11.41;61.76;98100.89;238969;174;138496;-55
2024/04/02 23:03:50;;;;;;;3.00;1.60;;;;;;;11.37;61.96;98103.89;238879;181;153145;-55
2024/04/02 23:08:53;;;;;;;4.20;1.60;;;;;;;11.34;62.05;98105.16;238792;180;137837;-56
2024/04/02 23:13:56;;;;;;;3.60;1.40;;;;;;;11.31;62.02;98104.38;238913;180;137777;-54
2024/04/02 23:18:59;;;;;;;3.60;1.80;;;;;;;11.32;62.06;98106.77;238923;180;153684;-57
2024/04/02 23:24:02;;;;;;;3.90;1.30;;;;;;;11.35;61.86;98105.47;238916;180;137167;-56
2024/04/02 23:29:05;;;;;;;3.80;1.20;;;;;;;11.37;61.61;98105.98;238886;180;137994;-54
2024/04/02 23:34:08;;;;;;;3.10;1.30;;;;;;;11.39;61.19;98110.64;238937;180;153208;-57